createdAt,value
2023-05-16T00:00:58.678Z,11.73
2023-05-16T00:03:25.618Z,11.68
2023-05-16T00:05:52.251Z,11.67
2023-05-16T00:08:18.926Z,11.65
2023-05-16T00:10:45.403Z,11.59
2023-05-16T00:13:11.904Z,11.68
2023-05-16T00:15:38.745Z,11.61
2023-05-16T00:18:05.860Z,11.55
2023-05-16T00:20:32.376Z,11.67
2023-05-16T00:23:01.292Z,11.66
2023-05-16T00:25:28.690Z,11.53
2023-05-16T00:27:55.347Z,11.57
2023-05-16T00:30:22.738Z,11.52
2023-05-16T00:32:49.615Z,11.59
2023-05-16T00:35:16.133Z,11.61
2023-05-16T00:37:42.599Z,11.52
2023-05-16T00:40:09.564Z,11.50
2023-05-16T00:42:36.294Z,11.41
2023-05-16T00:45:02.853Z,11.30
2023-05-16T00:47:29.412Z,11.24
2023-05-16T00:49:56.684Z,11.21
2023-05-16T00:52:23.273Z,11.28
2023-05-16T00:54:51.070Z,11.27
2023-05-16T00:57:17.836Z,10.99
2023-05-16T00:59:46.330Z,11.01
2023-05-16T01:02:13.698Z,11.07
2023-05-16T01:04:40.449Z,11.07
2023-05-16T01:07:25.478Z,10.92
2023-05-16T01:09:52.386Z,11.13
2023-05-16T01:12:57.074Z,10.79
2023-05-16T01:15:31.554Z,10.92
2023-05-16T01:18:08.909Z,10.81
2023-05-16T01:21:04.955Z,10.94
2023-05-16T01:23:46.347Z,10.93
2023-05-16T01:26:22.369Z,10.94
2023-05-16T01:28:51.174Z,10.86
2023-05-16T01:31:18.302Z,10.62
2023-05-16T01:33:45.115Z,10.65
2023-05-16T01:36:15.956Z,10.56
2023-05-16T01:38:50.765Z,10.56
2023-05-16T01:41:41.486Z,10.53
2023-05-16T01:44:16.201Z,10.50
2023-05-16T01:46:45.960Z,10.35
2023-05-16T01:49:19.907Z,10.25
2023-05-16T01:51:54.106Z,10.15
2023-05-16T01:54:25.013Z,10.13
2023-05-16T01:56:53.336Z,10.11
2023-05-16T01:59:24.417Z,10.01
2023-05-16T02:01:59.370Z,9.99
2023-05-16T02:04:26.380Z,9.77
2023-05-16T02:06:53.055Z,9.77
2023-05-16T02:09:19.548Z,9.84
2023-05-16T02:11:46.955Z,9.79
2023-05-16T02:14:13.555Z,9.62
2023-05-16T02:16:40.189Z,9.75
2023-05-16T02:19:06.723Z,9.75
2023-05-16T02:21:33.291Z,9.82
2023-05-16T02:23:59.798Z,9.92
2023-05-16T02:26:26.397Z,9.87
2023-05-16T02:28:52.854Z,9.78
2023-05-16T02:31:27.240Z,9.86
2023-05-16T02:33:53.978Z,9.89
2023-05-16T02:36:21.214Z,9.85
2023-05-16T02:38:48.780Z,9.71
2023-05-16T02:41:15.388Z,9.94
2023-05-16T02:43:41.825Z,9.97
2023-05-16T02:46:25.850Z,9.97
2023-05-16T02:48:52.687Z,10.03
2023-05-16T02:51:21.344Z,9.95
2023-05-16T02:53:47.850Z,9.98
2023-05-16T02:56:14.515Z,9.76
2023-05-16T02:58:41.734Z,9.88
2023-05-16T03:01:08.843Z,9.82
2023-05-16T03:03:37.541Z,9.75
2023-05-16T03:06:04.172Z,9.77
2023-05-16T03:08:30.939Z,9.83
2023-05-16T03:10:57.400Z,9.82
2023-05-16T03:13:24.136Z,9.87
2023-05-16T03:15:51.837Z,9.79
2023-05-16T03:18:18.344Z,9.66
2023-05-16T03:20:44.856Z,9.41
2023-05-16T03:23:11.369Z,9.52
2023-05-16T03:25:38.247Z,9.54
2023-05-16T03:28:07.880Z,9.62
2023-05-16T03:30:35.229Z,9.47
2023-05-16T03:33:02.281Z,9.35
2023-05-16T03:35:29.372Z,9.47
2023-05-16T03:37:56.233Z,9.25
2023-05-16T03:40:22.734Z,9.42
2023-05-16T03:42:49.269Z,9.56
2023-05-16T03:45:16.052Z,9.52
2023-05-16T03:47:42.734Z,9.66
2023-05-16T03:50:09.976Z,9.47
2023-05-16T03:52:36.890Z,9.31
2023-05-16T03:55:04.147Z,9.16
2023-05-16T03:57:32.469Z,9.37
2023-05-16T03:59:59.293Z,9.33
2023-05-16T04:02:25.942Z,9.25
2023-05-16T04:04:52.576Z,9.30
2023-05-16T04:07:19.394Z,9.03
2023-05-16T04:09:46.764Z,9.05
2023-05-16T04:12:13.218Z,9.24
2023-05-16T04:14:39.631Z,9.20
2023-05-16T04:17:06.325Z,9.30
2023-05-16T04:19:32.781Z,9.03
2023-05-16T04:21:59.209Z,9.07
2023-05-16T04:24:28.776Z,9.08
2023-05-16T04:26:55.646Z,9.02
2023-05-16T04:29:22.159Z,9.17
2023-05-16T04:31:48.781Z,9.14
2023-05-16T04:34:16.249Z,8.98
2023-05-16T04:36:42.807Z,9.04
2023-05-16T04:39:09.363Z,9.08
2023-05-16T04:41:36.202Z,8.99
2023-05-16T04:44:04.388Z,8.98
2023-05-16T04:46:31.294Z,9.04
2023-05-16T04:48:57.811Z,9.01
2023-05-16T04:51:24.492Z,8.96
2023-05-16T04:53:50.989Z,9.01
2023-05-16T04:56:17.881Z,8.92
2023-05-16T04:58:44.375Z,9.17
2023-05-16T05:01:10.925Z,9.12
2023-05-16T05:03:37.690Z,9.12
2023-05-16T05:06:04.608Z,9.13
2023-05-16T05:08:31.084Z,8.99
2023-05-16T05:10:57.567Z,9.03
2023-05-16T05:13:24.217Z,9.08
2023-05-16T05:15:52.295Z,9.11
2023-05-16T05:18:19.237Z,9.12
2023-05-16T05:20:45.824Z,9.15
2023-05-16T05:23:12.533Z,9.21
2023-05-16T05:25:39.579Z,9.16
2023-05-16T05:28:06.156Z,9.00
2023-05-16T05:30:32.733Z,9.08
2023-05-16T05:32:59.436Z,9.02
2023-05-16T05:35:26.414Z,9.09
2023-05-16T05:37:53.189Z,9.13
2023-05-16T05:40:19.658Z,9.25
2023-05-16T05:42:47.273Z,9.19
2023-05-16T05:45:15.383Z,9.19
2023-05-16T05:47:42.569Z,9.25
2023-05-16T05:50:11.474Z,9.38
2023-05-16T05:52:38.384Z,9.42
2023-05-16T05:55:05.250Z,9.41
2023-05-16T05:57:31.831Z,9.49
2023-05-16T05:59:58.281Z,9.18
2023-05-16T06:02:24.933Z,9.41
2023-05-16T06:04:54.040Z,9.50
2023-05-16T06:07:20.596Z,9.44
2023-05-16T06:09:47.137Z,9.33
2023-05-16T06:12:13.593Z,9.34
2023-05-16T06:14:40.030Z,9.24
2023-05-16T06:17:06.468Z,9.25
2023-05-16T06:19:33.008Z,9.41
2023-05-16T06:21:59.437Z,9.35
2023-05-16T06:24:26.267Z,9.45
2023-05-16T06:26:52.713Z,9.44
2023-05-16T06:29:19.201Z,9.52
2023-05-16T06:31:47.185Z,9.53
2023-05-16T06:34:13.731Z,9.61
2023-05-16T06:36:40.177Z,9.42
2023-05-16T06:39:06.783Z,9.35
2023-05-16T06:41:33.970Z,9.42
2023-05-16T06:44:00.406Z,9.48
2023-05-16T06:46:26.964Z,9.49
2023-05-16T06:48:53.510Z,9.44
2023-05-16T06:51:20.016Z,9.64
2023-05-16T06:53:46.541Z,9.72
2023-05-16T06:56:13.049Z,9.56
2023-05-16T06:58:39.760Z,9.41
2023-05-16T07:01:06.303Z,9.46
2023-05-16T07:03:33.045Z,9.51
2023-05-16T07:05:59.596Z,9.65
2023-05-16T07:08:26.147Z,9.31
2023-05-16T07:10:52.679Z,9.31
2023-05-16T07:13:19.231Z,9.47
2023-05-16T07:15:45.953Z,9.39
2023-05-16T07:18:12.593Z,9.61
2023-05-16T07:20:39.148Z,9.54
2023-05-16T07:23:05.721Z,9.59
2023-05-16T07:25:32.385Z,9.67
2023-05-16T07:27:59.801Z,9.68
2023-05-16T07:30:26.440Z,9.75
2023-05-16T07:32:52.972Z,9.53
2023-05-16T07:35:19.660Z,9.83
2023-05-16T07:37:46.475Z,9.86
2023-05-16T07:40:13.788Z,10.03
2023-05-16T07:42:40.400Z,10.07
2023-05-16T07:45:07.635Z,10.19
2023-05-16T07:47:34.314Z,10.20
2023-05-16T07:50:00.998Z,10.35
2023-05-16T07:52:27.680Z,10.14
2023-05-16T07:54:54.520Z,10.22
2023-05-16T07:57:23.215Z,10.03
2023-05-16T07:59:52.371Z,10.10
2023-05-16T08:02:19.490Z,10.17
2023-05-16T08:04:46.969Z,9.96
2023-05-16T08:07:13.651Z,10.15
2023-05-16T08:09:40.346Z,10.03
2023-05-16T08:12:07.391Z,10.08
2023-05-16T08:14:34.113Z,10.24
2023-05-16T08:17:00.914Z,9.80
2023-05-16T08:19:27.902Z,9.98
2023-05-16T08:21:55.107Z,9.91
2023-05-16T08:24:21.657Z,9.70
2023-05-16T08:26:48.345Z,9.71
2023-05-16T08:29:14.943Z,9.86
2023-05-16T08:31:41.562Z,9.67
2023-05-16T08:34:09.479Z,9.49
2023-05-16T08:36:39.109Z,9.75
2023-05-16T08:39:06.033Z,9.85
2023-05-16T08:41:32.592Z,9.95
2023-05-16T08:43:59.293Z,9.69
2023-05-16T08:46:26.562Z,9.75
2023-05-16T08:48:54.054Z,9.93
2023-05-16T08:51:21.549Z,10.11
2023-05-16T08:53:57.612Z,10.10
2023-05-16T08:56:24.970Z,10.18
2023-05-16T08:58:55.197Z,10.43
2023-05-16T09:01:23.031Z,10.38
2023-05-16T09:03:51.119Z,10.38
2023-05-16T09:06:17.790Z,10.56
2023-05-16T09:08:44.480Z,10.30
2023-05-16T09:11:11.066Z,10.35
2023-05-16T09:13:38.983Z,10.42
2023-05-16T09:16:09.811Z,10.35
2023-05-16T09:18:37.474Z,10.62
2023-05-16T09:21:06.260Z,10.65
2023-05-16T09:23:35.104Z,10.62
2023-05-16T09:26:05.324Z,10.50
2023-05-16T09:28:31.952Z,10.45
2023-05-16T09:30:59.955Z,10.54
2023-05-16T09:33:29.964Z,10.32
2023-05-16T09:36:00.819Z,10.42
2023-05-16T09:38:28.481Z,10.25
2023-05-16T09:40:55.849Z,10.33
2023-05-16T09:43:28.531Z,10.45
2023-05-16T09:45:56.072Z,10.56
2023-05-16T09:48:23.765Z,10.03
2023-05-16T09:50:53.328Z,10.14
2023-05-16T09:53:32.403Z,10.40
2023-05-16T09:56:10.982Z,10.32
2023-05-16T09:58:42.628Z,10.60
2023-05-16T10:01:09.772Z,10.56
2023-05-16T10:03:41.238Z,10.60
2023-05-16T10:06:09.001Z,10.46
2023-05-16T10:08:36.989Z,10.48
2023-05-16T10:11:06.447Z,10.38
2023-05-16T10:13:37.699Z,10.66
2023-05-16T10:16:11.319Z,10.71
2023-05-16T10:18:40.792Z,10.76
2023-05-16T10:21:14.843Z,10.70
2023-05-16T10:23:49.190Z,10.85
2023-05-16T10:26:17.376Z,11.07
2023-05-16T10:28:44.667Z,11.35
2023-05-16T10:31:11.828Z,11.62
2023-05-16T10:33:39.891Z,11.43
2023-05-16T10:36:15.608Z,11.53
2023-05-16T10:38:43.037Z,11.44
2023-05-16T10:41:10.171Z,11.61
2023-05-16T10:43:36.814Z,11.22
2023-05-16T10:46:05.574Z,11.04
2023-05-16T10:48:42.261Z,11.06
2023-05-16T10:51:23.813Z,10.64
2023-05-16T10:53:54.738Z,10.72
2023-05-16T10:56:26.726Z,10.69
2023-05-16T10:58:54.493Z,10.55
2023-05-16T11:01:27.107Z,10.62
2023-05-16T11:03:57.273Z,10.92
2023-05-16T11:06:25.697Z,10.72
2023-05-16T11:09:06.796Z,10.88
2023-05-16T11:11:48.983Z,11.31
2023-05-16T11:14:25.593Z,11.15
2023-05-16T11:16:55.462Z,11.17
2023-05-16T11:19:34.286Z,11.21
2023-05-16T11:22:19.395Z,11.12
2023-05-16T11:25:05.459Z,11.28
2023-05-16T11:27:33.959Z,11.02
2023-05-16T11:30:11.229Z,11.07
2023-05-16T11:32:39.982Z,11.07
2023-05-16T11:35:09.599Z,11.29
2023-05-16T11:37:39.337Z,10.97
2023-05-16T11:40:08.553Z,11.08
2023-05-16T11:42:44.087Z,11.18
2023-05-16T11:45:13.122Z,11.18
2023-05-16T11:47:40.653Z,11.50
2023-05-16T11:50:17.224Z,11.61
2023-05-16T11:52:47.540Z,11.65
2023-05-16T11:55:39.489Z,11.84
2023-05-16T11:58:02.780Z,11.86
2023-05-16T12:00:29.304Z,12.37
2023-05-16T12:03:03.135Z,11.99
2023-05-16T12:05:32.100Z,12.32
2023-05-16T12:07:59.882Z,12.85
2023-05-16T12:10:26.889Z,12.47
2023-05-16T12:12:54.980Z,12.59
2023-05-16T12:15:22.695Z,12.81
2023-05-16T12:17:49.520Z,13.05
2023-05-16T12:20:16.687Z,12.96
2023-05-16T12:22:47.166Z,12.60
2023-05-16T12:25:24.001Z,12.62
2023-05-16T12:27:51.126Z,12.53
2023-05-16T12:30:18.814Z,12.58
2023-05-16T12:32:45.918Z,12.52
2023-05-16T12:35:13.293Z,12.74
2023-05-16T12:37:39.861Z,12.65
2023-05-16T12:40:10.815Z,12.55
2023-05-16T12:42:38.016Z,12.40
2023-05-16T12:45:05.553Z,12.12
2023-05-16T12:47:36.992Z,12.29
2023-05-16T12:50:08.861Z,12.31
2023-05-16T12:52:35.331Z,12.00
2023-05-16T12:55:02.066Z,12.56
2023-05-16T12:57:28.734Z,12.46
2023-05-16T12:59:55.219Z,12.75
2023-05-16T13:02:22.591Z,12.96
2023-05-16T13:04:49.106Z,12.74
2023-05-16T13:07:17.560Z,12.81
2023-05-16T13:09:44.170Z,13.06
2023-05-16T13:12:10.980Z,13.03
2023-05-16T13:14:37.474Z,13.34
2023-05-16T13:17:04.643Z,13.34
2023-05-16T13:19:31.867Z,13.34
2023-05-16T13:21:58.482Z,13.41
2023-05-16T13:24:25.065Z,13.38
2023-05-16T13:26:51.552Z,13.38
2023-05-16T13:29:18.208Z,13.43
2023-05-16T13:31:44.876Z,13.31
2023-05-16T13:34:11.452Z,13.21
2023-05-16T13:36:52.138Z,13.17
2023-05-16T13:39:20.134Z,12.94
2023-05-16T13:41:48.997Z,13.06
2023-05-16T13:44:16.217Z,12.98
2023-05-16T13:46:43.171Z,12.93
2023-05-16T13:49:09.810Z,13.12
2023-05-16T13:51:36.407Z,13.16
2023-05-16T13:54:02.976Z,13.41
2023-05-16T13:56:29.444Z,13.39
2023-05-16T13:59:03.645Z,13.41
2023-05-16T14:01:32.858Z,13.64
2023-05-16T14:03:59.604Z,13.42
2023-05-16T14:06:26.359Z,13.73
2023-05-16T14:08:52.880Z,13.56
2023-05-16T14:11:19.926Z,13.53
2023-05-16T14:13:46.633Z,13.45
2023-05-16T14:16:13.219Z,13.08
2023-05-16T14:18:39.733Z,13.28
2023-05-16T14:21:06.340Z,13.21
2023-05-16T14:23:32.860Z,13.14
2023-05-16T14:25:59.315Z,13.20
2023-05-16T14:28:25.800Z,13.21
2023-05-16T14:30:52.288Z,13.42
2023-05-16T14:33:18.933Z,13.39
2023-05-16T14:35:45.489Z,13.29
2023-05-16T14:38:11.969Z,13.55
2023-05-16T14:40:38.650Z,13.15
2023-05-16T14:43:05.212Z,13.13
2023-05-16T14:45:31.771Z,13.22
2023-05-16T14:47:58.284Z,13.03
2023-05-16T14:50:24.896Z,12.92
2023-05-16T14:52:52.672Z,12.99
2023-05-16T14:55:20.035Z,13.06
2023-05-16T14:57:48.850Z,13.08
2023-05-16T15:00:17.544Z,13.25
2023-05-16T15:02:44.761Z,13.33
2023-05-16T15:05:11.323Z,13.00
2023-05-16T15:07:37.887Z,13.19
2023-05-16T15:10:04.633Z,13.22
2023-05-16T15:12:31.265Z,13.25
2023-05-16T15:14:57.801Z,13.02
2023-05-16T15:17:24.620Z,13.15
2023-05-16T15:19:53.141Z,13.35
2023-05-16T15:22:22.745Z,13.14
2023-05-16T15:24:49.373Z,13.21
2023-05-16T15:27:16.105Z,13.27
2023-05-16T15:29:42.609Z,13.31
2023-05-16T15:32:09.568Z,13.45
2023-05-16T15:34:36.144Z,13.27
2023-05-16T15:37:02.830Z,13.11
2023-05-16T15:39:29.386Z,13.14
2023-05-16T15:42:10.210Z,13.03
2023-05-16T15:44:38.344Z,13.04
2023-05-16T15:47:05.363Z,12.84
2023-05-16T15:49:31.886Z,13.05
2023-05-16T15:51:58.458Z,13.30
2023-05-16T15:54:24.964Z,13.67
2023-05-16T15:56:51.607Z,13.85
2023-05-16T15:59:18.250Z,13.72
2023-05-16T16:01:44.859Z,13.72
2023-05-16T16:04:11.726Z,13.81
2023-05-16T16:06:38.409Z,13.92
2023-05-16T16:09:05.142Z,13.83
2023-05-16T16:11:31.917Z,14.01
2023-05-16T16:13:58.606Z,13.92
2023-05-16T16:16:25.198Z,14.14
2023-05-16T16:18:52.048Z,14.01
2023-05-16T16:21:18.721Z,14.09
2023-05-16T16:23:45.466Z,14.01
2023-05-16T16:26:11.983Z,14.06
2023-05-16T16:28:38.854Z,14.08
2023-05-16T16:31:05.514Z,14.00
2023-05-16T16:33:32.193Z,14.11
2023-05-16T16:35:59.424Z,14.18
2023-05-16T16:38:26.345Z,14.26
2023-05-16T16:40:53.209Z,14.20
2023-05-16T16:43:19.785Z,14.20
2023-05-16T16:45:46.398Z,14.05
2023-05-16T16:48:12.930Z,14.11
2023-05-16T16:50:40.173Z,13.64
2023-05-16T16:53:06.730Z,13.80
2023-05-16T16:55:33.411Z,13.94
2023-05-16T16:58:02.387Z,13.88
2023-05-16T17:00:31.596Z,13.84
2023-05-16T17:02:58.738Z,13.83
2023-05-16T17:05:25.636Z,13.83
2023-05-16T17:07:52.524Z,13.73
2023-05-16T17:10:19.012Z,13.76
2023-05-16T17:12:49.396Z,13.77
2023-05-16T17:15:19.762Z,13.50
2023-05-16T17:17:49.304Z,13.63
2023-05-16T17:20:16.019Z,13.56
2023-05-16T17:22:42.546Z,13.04
2023-05-16T17:25:09.808Z,12.93
2023-05-16T17:27:36.317Z,12.69
2023-05-16T17:30:04.635Z,12.51
2023-05-16T17:32:31.711Z,12.52
2023-05-16T17:35:00.416Z,12.41
2023-05-16T17:37:27.016Z,12.41
2023-05-16T17:39:53.536Z,12.43
2023-05-16T17:42:20.021Z,12.31
2023-05-16T17:44:46.544Z,12.17
2023-05-16T17:47:13.666Z,12.06
2023-05-16T17:49:40.730Z,12.09
2023-05-16T17:52:07.799Z,12.06
2023-05-16T17:54:34.339Z,12.16
2023-05-16T17:57:01.746Z,12.07
2023-05-16T17:59:28.449Z,12.08
2023-05-16T18:01:57.432Z,12.04
2023-05-16T18:04:24.460Z,11.72
2023-05-16T18:06:54.491Z,11.88
2023-05-16T18:09:21.161Z,11.83
2023-05-16T18:11:47.692Z,11.83
2023-05-16T18:14:14.414Z,11.69
2023-05-16T18:16:40.971Z,11.61
2023-05-16T18:19:08.777Z,11.54
2023-05-16T18:21:36.429Z,11.53
2023-05-16T18:24:03.029Z,11.53
2023-05-16T18:26:29.831Z,11.36
2023-05-16T18:28:58.049Z,11.32
2023-05-16T18:31:24.716Z,11.43
2023-05-16T18:33:51.756Z,11.37
2023-05-16T18:36:18.766Z,11.26
2023-05-16T18:38:45.653Z,11.31
2023-05-16T18:41:12.235Z,11.14
2023-05-16T18:43:38.752Z,11.25
2023-05-16T18:46:05.280Z,11.16
2023-05-16T18:48:33.417Z,11.13
2023-05-16T18:51:02.222Z,11.03
2023-05-16T18:53:28.701Z,10.98
2023-05-16T18:55:56.007Z,11.02
2023-05-16T18:58:22.565Z,10.90
2023-05-16T19:00:49.132Z,10.85
2023-05-16T19:03:15.741Z,10.95
2023-05-16T19:05:42.588Z,10.84
2023-05-16T19:08:09.315Z,10.73
2023-05-16T19:10:38.508Z,10.76
2023-05-16T19:13:08.744Z,10.70
2023-05-16T19:15:36.317Z,10.71
2023-05-16T19:18:04.943Z,10.56
2023-05-16T19:20:33.609Z,10.63
2023-05-16T19:23:00.386Z,10.58
2023-05-16T19:25:27.234Z,10.53
2023-05-16T19:27:54.544Z,10.50
2023-05-16T19:30:21.222Z,10.44
2023-05-16T19:32:47.812Z,10.37
2023-05-16T19:35:14.646Z,10.32
2023-05-16T19:37:41.175Z,10.30
2023-05-16T19:40:08.407Z,10.20
2023-05-16T19:42:34.977Z,10.25
2023-05-16T19:45:01.615Z,10.12
2023-05-16T19:47:28.252Z,10.20
2023-05-16T19:49:55.111Z,10.07
2023-05-16T19:52:21.793Z,9.88
2023-05-16T19:54:48.357Z,10.01
2023-05-16T19:57:14.975Z,9.94
2023-05-16T19:59:41.493Z,9.85
2023-05-16T20:02:08.171Z,9.80
2023-05-16T20:04:34.729Z,9.68
2023-05-16T20:07:01.230Z,9.57
2023-05-16T20:09:28.513Z,9.57
2023-05-16T20:11:57.273Z,9.50
2023-05-16T20:14:23.830Z,9.47
2023-05-16T20:16:51.448Z,9.48
2023-05-16T20:19:19.216Z,9.37
2023-05-16T20:21:46.457Z,9.40
2023-05-16T20:24:13.626Z,9.36
2023-05-16T20:26:40.495Z,9.30
2023-05-16T20:29:07.032Z,9.23
2023-05-16T20:31:33.674Z,9.12
2023-05-16T20:34:00.505Z,9.17
2023-05-16T20:36:27.132Z,9.13
2023-05-16T20:38:53.744Z,9.11
2023-05-16T20:41:20.334Z,9.13
2023-05-16T20:43:46.884Z,9.11
2023-05-16T20:46:13.552Z,9.14
2023-05-16T20:48:40.121Z,9.15
2023-05-16T20:51:06.810Z,9.08
2023-05-16T20:53:33.371Z,9.01
2023-05-16T20:55:59.858Z,9.04
2023-05-16T20:58:26.306Z,8.99
2023-05-16T21:00:52.797Z,8.96
2023-05-16T21:03:19.267Z,8.98
2023-05-16T21:05:45.845Z,8.95
2023-05-16T21:08:12.370Z,8.89
2023-05-16T21:10:39.140Z,8.88
2023-05-16T21:13:06.170Z,8.83
2023-05-16T21:15:32.761Z,8.81
2023-05-16T21:17:59.420Z,8.76
2023-05-16T21:20:28.411Z,8.76
2023-05-16T21:22:54.989Z,8.65
2023-05-16T21:25:21.734Z,8.69
2023-05-16T21:27:48.243Z,8.63
2023-05-16T21:30:14.963Z,8.60
2023-05-16T21:32:41.597Z,8.59
2023-05-16T21:35:08.968Z,8.47
2023-05-16T21:37:35.570Z,8.47
2023-05-16T21:40:02.340Z,8.46
2023-05-16T21:42:28.821Z,8.38
2023-05-16T21:44:55.443Z,8.31
2023-05-16T21:47:21.939Z,8.31
2023-05-16T21:49:48.453Z,8.21
2023-05-16T21:52:15.105Z,8.17
2023-05-16T21:54:41.852Z,8.16
2023-05-16T21:57:08.340Z,8.16
2023-05-16T21:59:34.815Z,8.12
2023-05-16T22:02:01.331Z,8.11
2023-05-16T22:04:28.055Z,8.01
2023-05-16T22:06:54.600Z,8.01
2023-05-16T22:09:21.178Z,8.00
2023-05-16T22:11:47.762Z,7.95
2023-05-16T22:14:14.322Z,7.93
2023-05-16T22:16:40.797Z,7.87
2023-05-16T22:19:08.882Z,7.88
2023-05-16T22:21:36.039Z,7.86
2023-05-16T22:24:02.544Z,7.87
2023-05-16T22:26:29.066Z,7.80
2023-05-16T22:28:55.641Z,7.78
2023-05-16T22:31:22.156Z,7.67
2023-05-16T22:33:48.674Z,7.69
2023-05-16T22:36:15.214Z,7.63
2023-05-16T22:38:41.826Z,7.67
2023-05-16T22:41:08.362Z,7.61
2023-05-16T22:43:35.171Z,7.58
2023-05-16T22:46:03.145Z,7.56
2023-05-16T22:48:29.947Z,7.49
2023-05-16T22:50:57.318Z,7.48
2023-05-16T22:53:23.989Z,7.47
2023-05-16T22:55:50.925Z,7.46
2023-05-16T22:58:17.899Z,7.38
2023-05-16T23:00:44.418Z,7.34
2023-05-16T23:03:11.101Z,7.34
2023-05-16T23:05:37.636Z,7.31
2023-05-16T23:08:04.407Z,7.32
2023-05-16T23:10:31.426Z,7.31
2023-05-16T23:12:58.008Z,7.27
2023-05-16T23:15:24.507Z,7.26
2023-05-16T23:17:51.770Z,7.23
2023-05-16T23:20:18.427Z,7.22
2023-05-16T23:22:44.951Z,7.13
2023-05-16T23:25:11.571Z,7.14
2023-05-16T23:27:38.070Z,7.10
2023-05-16T23:30:05.073Z,7.12
2023-05-16T23:32:31.634Z,7.08
2023-05-16T23:34:58.221Z,7.11
2023-05-16T23:37:24.822Z,7.09
2023-05-16T23:39:51.284Z,7.05
2023-05-16T23:42:17.765Z,7.03
2023-05-16T23:44:44.236Z,7.09
2023-05-16T23:47:10.781Z,7.07
2023-05-16T23:49:37.441Z,6.99
2023-05-16T23:52:05.900Z,6.95
2023-05-16T23:54:33.586Z,6.98
2023-05-16T23:57:00.145Z,6.97
2023-05-16T23:59:26.773Z,6.92
